createdAt,value
2022-08-11T16:12:46.939Z,788.00
2022-08-11T16:13:47.483Z,792.00
2022-08-11T16:14:49.424Z,788.00
2022-08-11T16:15:49.260Z,777.00
2022-08-11T16:16:50.946Z,787.00
2022-08-11T16:17:51.177Z,777.00
2022-08-11T16:18:52.096Z,786.00
2022-08-11T16:19:51.852Z,787.00
2022-08-11T16:20:53.328Z,778.00
2022-08-11T16:21:52.498Z,788.00
2022-08-11T16:23:01.246Z,787.00
2022-08-11T16:23:53.066Z,788.00
2022-08-11T16:26:30.534Z,787.00
2022-08-11T16:27:02.413Z,787.00
2022-08-11T16:27:10.078Z,787.00
2022-08-11T16:27:56.754Z,777.00
2022-08-11T16:28:55.148Z,787.00
2022-08-11T16:29:56.316Z,787.00
2022-08-11T16:30:55.814Z,786.00
2022-08-11T16:31:57.657Z,782.00
2022-08-11T16:32:58.587Z,787.00
2022-08-11T16:33:58.363Z,786.00
2022-08-11T16:34:59.186Z,784.00
2022-08-11T16:35:59.576Z,774.00
2022-08-11T16:36:59.924Z,785.00
2022-08-11T16:38:00.302Z,771.00
2022-08-11T16:39:00.970Z,772.00
2022-08-11T16:39:14.619Z,759.00
2022-08-11T16:40:14.922Z,774.00
2022-08-11T16:41:14.873Z,782.00
2022-08-11T16:43:04.474Z,782.00
2022-08-11T16:43:15.900Z,783.00
2022-08-11T16:44:17.416Z,768.00
2022-08-11T16:45:20.961Z,774.00
2022-08-11T16:46:17.692Z,784.00
2022-08-11T16:47:18.363Z,773.00
2022-08-11T16:48:33.510Z,783.00
2022-08-11T16:49:19.623Z,784.00
2022-08-11T16:50:19.713Z,785.00
2022-08-11T16:51:21.069Z,785.00
2022-08-11T16:52:21.141Z,786.00
2022-08-11T16:53:20.826Z,787.00
2022-08-11T16:54:21.177Z,786.00
2022-08-11T16:55:52.420Z,785.00
2022-08-11T16:56:22.311Z,785.00
2022-08-11T16:57:22.860Z,786.00
2022-08-11T16:58:23.406Z,787.00
2022-08-11T16:59:25.067Z,786.00
2022-08-11T17:00:24.517Z,787.00
2022-08-11T17:01:24.650Z,788.00
2022-08-11T17:02:25.549Z,788.00
2022-08-11T17:03:26.105Z,788.00
2022-08-11T17:04:26.444Z,787.00
2022-08-11T17:05:26.722Z,788.00
2022-08-11T17:05:38.157Z,781.00
2022-08-11T17:06:38.308Z,787.00
2022-08-11T17:07:41.856Z,777.00
2022-08-11T17:08:38.836Z,766.00
2022-08-11T17:09:39.593Z,764.00
2022-08-11T17:10:53.754Z,787.00
2022-08-11T17:11:41.250Z,783.00
2022-08-11T17:12:42.382Z,788.00
2022-08-11T17:13:43.073Z,787.00
2022-08-11T17:14:42.938Z,778.00
2022-08-11T17:15:44.121Z,732.00
2022-08-11T17:16:44.071Z,777.00
2022-08-11T17:17:45.338Z,787.00
2022-08-11T17:18:45.366Z,781.00
2022-08-11T17:20:38.343Z,788.00
2022-08-11T17:20:45.809Z,786.00
2022-08-11T17:21:47.378Z,770.00
2022-08-11T17:22:47.226Z,784.00
2022-08-11T17:23:47.452Z,783.00
2022-08-11T17:24:47.716Z,786.00
2022-08-11T17:25:59.715Z,784.00
2022-08-11T17:26:48.031Z,776.00
2022-08-11T17:27:48.108Z,785.00
2022-08-11T17:29:26.414Z,775.00
2022-08-11T17:30:30.742Z,769.00
2022-08-11T17:31:27.506Z,778.00
2022-08-11T17:32:27.600Z,783.00
2022-08-11T17:33:28.558Z,782.00
2022-08-11T17:34:28.604Z,782.00
2022-08-11T17:35:30.255Z,773.00
2022-08-11T17:36:29.243Z,754.00
2022-08-11T17:37:29.413Z,785.00
2022-08-11T17:38:30.416Z,793.00
2022-08-11T17:39:32.162Z,764.00
2022-08-11T17:40:31.554Z,793.00
2022-08-11T17:41:33.463Z,794.00
2022-08-11T17:42:36.009Z,794.00
2022-08-11T17:43:33.583Z,794.00
2022-08-11T17:44:34.872Z,794.00
2022-08-11T17:45:34.932Z,794.00
2022-08-11T17:46:35.338Z,783.00
2022-08-11T17:47:36.433Z,783.00
2022-08-11T17:48:35.715Z,784.00
2022-08-11T17:49:36.639Z,793.00
2022-08-11T17:50:38.546Z,793.00
2022-08-11T17:51:39.335Z,793.00
2022-08-11T17:52:39.051Z,793.00
2022-08-11T17:53:39.892Z,793.00
2022-08-11T17:54:16.996Z,793.00
2022-08-11T17:54:49.885Z,792.00
2022-08-11T17:55:51.959Z,793.00
2022-08-11T17:56:50.832Z,776.00
2022-08-11T17:57:50.969Z,793.00
2022-08-11T17:58:52.903Z,794.00
2022-08-11T17:59:53.234Z,795.00
2022-08-11T18:00:51.924Z,794.00
2022-08-11T18:01:54.032Z,795.00
2022-08-11T18:02:52.949Z,794.00
2022-08-11T18:03:58.454Z,783.00
2022-08-11T18:04:54.240Z,784.00
2022-08-11T18:05:54.605Z,794.00
2022-08-11T18:06:55.269Z,795.00
2022-08-11T18:07:56.737Z,796.00
2022-08-11T18:08:56.846Z,796.00
2022-08-11T18:09:55.859Z,786.00
2022-08-11T18:10:55.933Z,797.00
2022-08-11T18:12:06.861Z,796.00
2022-08-11T18:12:56.613Z,786.00
2022-08-11T18:13:57.465Z,796.00
2022-08-11T18:14:57.774Z,795.00
2022-08-11T18:15:58.236Z,797.00
2022-08-11T18:17:03.833Z,798.00
2022-08-11T18:17:59.260Z,797.00
2022-08-11T18:19:00.595Z,790.00
2022-08-11T18:19:09.306Z,798.00
2022-08-11T18:20:09.721Z,790.00
2022-08-11T18:21:10.870Z,802.00
2022-08-11T18:22:15.122Z,801.00
2022-08-11T18:23:11.179Z,802.00
2022-08-11T18:24:11.572Z,802.00
2022-08-11T18:25:12.746Z,801.00
2022-08-11T18:26:12.777Z,801.00
2022-08-11T18:27:13.740Z,798.00
2022-08-11T18:28:13.413Z,792.00
2022-08-11T18:29:13.838Z,800.00
2022-08-11T18:30:14.746Z,800.00
2022-08-11T18:31:16.328Z,800.00
2022-08-11T18:32:21.998Z,800.00
2022-08-11T18:33:44.937Z,798.00
2022-08-11T18:34:16.833Z,800.00
2022-08-11T18:35:16.996Z,798.00
2022-08-11T18:36:18.517Z,795.00
2022-08-11T18:37:20.210Z,800.00
2022-08-11T18:38:18.847Z,800.00
2022-08-11T18:39:19.951Z,800.00
2022-08-11T18:40:18.990Z,798.00
2022-08-11T18:41:19.140Z,798.00
2022-08-11T18:42:29.097Z,797.00
2022-08-11T18:43:23.814Z,798.00
2022-08-11T18:44:20.477Z,797.00
2022-08-11T18:45:20.756Z,797.00
2022-08-11T18:46:22.017Z,797.00
2022-08-11T18:47:21.307Z,797.00
2022-08-11T18:47:32.603Z,797.00
2022-08-11T18:48:34.190Z,797.00
2022-08-11T18:50:02.547Z,786.00
2022-08-11T18:50:39.537Z,796.00
2022-08-11T18:51:36.825Z,798.00
2022-08-11T18:52:34.409Z,797.00
2022-08-11T18:53:36.305Z,797.00
2022-08-11T18:54:36.292Z,786.00
2022-08-11T18:55:36.190Z,797.00
2022-08-11T18:56:36.731Z,797.00
2022-08-11T18:57:49.754Z,786.00
2022-08-11T18:58:38.171Z,787.00
2022-08-11T18:59:39.021Z,787.00
2022-08-11T19:00:40.294Z,798.00
2022-08-11T19:01:43.066Z,787.00
2022-08-11T19:02:49.161Z,785.00
2022-08-11T19:03:43.336Z,800.00
2022-08-11T19:04:42.163Z,800.00
2022-08-11T19:06:31.816Z,800.00
2022-08-11T19:06:43.072Z,788.00
2022-08-11T19:07:46.559Z,786.00
2022-08-11T19:08:44.250Z,800.00
2022-08-11T19:09:45.203Z,787.00
2022-08-11T19:10:53.190Z,801.00
2022-08-11T19:11:46.801Z,789.00
2022-08-11T19:12:47.825Z,788.00
2022-08-11T19:13:59.156Z,789.00
2022-08-11T19:14:47.941Z,792.00
2022-08-11T19:16:06.037Z,802.00
2022-08-11T19:17:47.125Z,805.00
2022-08-11T19:17:50.070Z,805.00
2022-08-11T19:18:52.992Z,795.00
2022-08-11T19:19:50.663Z,806.00
2022-08-11T19:20:53.999Z,806.00
2022-08-11T19:21:52.067Z,792.00
2022-08-11T19:22:52.042Z,777.00
2022-08-11T19:23:52.980Z,778.00
2022-08-11T19:24:53.870Z,806.00
2022-08-11T19:25:54.814Z,796.00
2022-08-11T19:26:55.704Z,801.00
2022-08-11T19:28:14.216Z,784.00
2022-08-11T19:30:09.079Z,804.00
2022-08-11T19:30:46.724Z,798.00
2022-08-11T19:31:52.847Z,795.00
2022-08-11T19:32:44.854Z,800.00
2022-08-11T19:34:03.012Z,788.00
2022-08-11T19:34:44.852Z,766.00
2022-08-11T19:37:20.715Z,774.00
2022-08-11T19:38:10.578Z,768.00
2022-08-11T19:39:08.047Z,776.00
2022-08-11T19:40:14.209Z,766.00
2022-08-11T19:41:12.929Z,776.00
2022-08-11T19:42:10.864Z,778.00
2022-08-11T19:43:23.579Z,758.00
2022-08-11T19:44:16.720Z,768.00
2022-08-11T19:45:23.249Z,765.00
2022-08-11T19:46:14.955Z,766.00
2022-08-11T19:47:17.541Z,766.00
2022-08-11T19:48:32.080Z,778.00
2022-08-11T19:49:13.477Z,766.00
2022-08-11T19:50:21.502Z,765.00
2022-08-11T19:51:15.116Z,769.00
2022-08-11T19:52:19.190Z,780.00
2022-08-11T19:53:17.669Z,768.00
2022-08-11T19:54:16.975Z,766.00
2022-08-11T19:55:19.207Z,768.00
2022-08-11T19:56:17.375Z,768.00
2022-08-11T19:57:17.697Z,753.00
2022-08-11T19:58:18.553Z,768.00
2022-08-11T19:59:23.072Z,768.00
2022-08-11T20:00:19.402Z,766.00
2022-08-11T20:01:19.519Z,782.00
2022-08-11T20:03:37.324Z,785.00
2022-08-11T20:06:19.726Z,785.00
2022-08-11T20:07:21.981Z,773.00
2022-08-11T20:08:20.017Z,772.00
2022-08-11T20:09:19.949Z,766.00
2022-08-11T20:10:23.344Z,769.00
2022-08-11T20:11:23.423Z,780.00
2022-08-11T20:12:24.130Z,776.00
2022-08-11T20:13:29.537Z,778.00
2022-08-11T20:14:22.880Z,768.00
2022-08-11T20:15:23.888Z,768.00
2022-08-11T20:16:24.956Z,768.00
2022-08-11T20:17:24.304Z,766.00
2022-08-11T20:18:27.348Z,778.00
2022-08-11T20:19:26.197Z,768.00
2022-08-11T20:20:25.348Z,768.00
2022-08-11T20:21:32.786Z,768.00
2022-08-11T20:22:26.429Z,778.00
2022-08-11T20:23:25.672Z,768.00
2022-08-11T20:24:26.625Z,764.00
2022-08-11T20:25:33.652Z,768.00
2022-08-11T20:26:31.272Z,748.00
2022-08-11T20:27:29.653Z,776.00
2022-08-11T20:28:33.651Z,763.00
2022-08-11T20:29:29.997Z,753.00
2022-08-11T20:30:30.162Z,763.00
2022-08-11T20:31:32.779Z,765.00
2022-08-11T20:32:31.137Z,764.00
2022-08-11T20:32:45.622Z,770.00
2022-08-11T20:33:44.054Z,776.00
2022-08-11T20:34:45.900Z,780.00
2022-08-11T20:36:20.860Z,768.00
2022-08-11T20:36:45.778Z,768.00
2022-08-11T20:37:51.127Z,768.00
2022-08-11T20:38:53.351Z,783.00
2022-08-11T20:39:47.087Z,769.00
2022-08-11T20:40:56.520Z,738.00
2022-08-11T20:43:09.076Z,778.00
2022-08-11T20:44:09.113Z,774.00
2022-08-11T20:45:07.494Z,773.00
2022-08-11T20:46:35.977Z,786.00
2022-08-11T20:47:59.419Z,774.00
2022-08-11T20:48:40.882Z,775.00
2022-08-11T20:49:45.932Z,736.00
2022-08-11T20:50:38.401Z,773.00
2022-08-11T20:51:40.404Z,775.00
2022-08-11T20:52:40.619Z,788.00
2022-08-11T20:53:42.490Z,775.00
2022-08-11T20:54:43.644Z,785.00
2022-08-11T20:55:52.271Z,773.00
2022-08-11T20:56:41.824Z,775.00
2022-08-11T20:58:00.027Z,776.00
2022-08-11T20:59:17.367Z,785.00
2022-08-11T20:59:52.790Z,773.00
2022-08-11T21:00:11.617Z,758.00
2022-08-11T21:01:20.427Z,771.00
2022-08-11T21:02:10.943Z,774.00
2022-08-11T21:03:11.767Z,783.00
2022-08-11T21:04:13.332Z,772.00
2022-08-11T21:05:19.334Z,770.00
2022-08-11T21:06:13.604Z,770.00
2022-08-11T21:07:22.789Z,786.00
2022-08-11T21:08:14.652Z,780.00
2022-08-11T21:09:19.738Z,778.00
2022-08-11T21:10:24.055Z,778.00
2022-08-11T21:12:17.044Z,775.00
2022-08-11T21:15:04.814Z,796.00
2022-08-11T21:16:01.360Z,783.00
2022-08-11T21:17:01.751Z,783.00
2022-08-11T21:18:06.939Z,782.00
2022-08-11T21:19:04.124Z,782.00
2022-08-11T21:20:10.781Z,766.00
2022-08-11T21:21:25.591Z,794.00
2022-08-11T21:22:07.722Z,785.00
2022-08-11T21:23:08.379Z,784.00
2022-08-11T21:24:06.220Z,785.00
2022-08-11T21:25:07.262Z,785.00
2022-08-11T21:26:06.934Z,784.00
2022-08-11T21:27:08.123Z,785.00
2022-08-11T21:27:24.754Z,785.00
2022-08-11T21:28:23.189Z,786.00
2022-08-11T21:29:24.298Z,796.00
2022-08-11T21:30:25.120Z,786.00
2022-08-11T21:31:26.102Z,786.00
2022-08-11T21:32:26.889Z,786.00
2022-08-11T21:33:28.581Z,796.00
2022-08-11T21:34:29.441Z,786.00
2022-08-11T21:35:28.858Z,786.00
2022-08-11T21:36:29.676Z,801.00
2022-08-11T21:37:30.973Z,799.00
2022-08-11T21:38:30.878Z,785.00
2022-08-11T21:39:31.373Z,798.00
2022-08-11T21:40:31.592Z,792.00
2022-08-11T21:41:32.431Z,801.00
2022-08-11T21:42:34.252Z,801.00
2022-08-11T21:43:33.429Z,790.00
2022-08-11T21:43:47.651Z,794.00
2022-08-11T21:44:47.827Z,789.00
2022-08-11T21:45:48.930Z,792.00
2022-08-11T21:46:48.694Z,788.00
2022-08-11T21:47:49.419Z,800.00
2022-08-11T21:48:49.497Z,802.00
2022-08-11T21:49:51.172Z,796.00
2022-08-11T21:50:50.883Z,800.00
2022-08-11T21:51:50.854Z,793.00
2022-08-11T21:52:51.675Z,794.00
2022-08-11T21:53:53.571Z,798.00
2022-08-11T21:54:55.019Z,787.00
2022-08-11T21:55:53.841Z,790.00
2022-08-11T21:56:55.311Z,792.00
2022-08-11T21:57:54.908Z,788.00
2022-08-11T21:58:55.563Z,787.00
2022-08-11T21:59:57.063Z,786.00
2022-08-11T22:00:56.893Z,797.00
2022-08-11T22:01:58.164Z,798.00
2022-08-11T22:02:57.864Z,798.00
2022-08-11T22:03:09.879Z,788.00
2022-08-11T22:04:10.971Z,787.00
2022-08-11T22:05:11.201Z,798.00
2022-08-11T22:06:11.583Z,788.00
2022-08-11T22:07:11.820Z,797.00
2022-08-11T22:08:12.361Z,798.00
2022-08-11T22:09:12.249Z,787.00
2022-08-11T22:10:41.539Z,788.00
2022-08-11T22:11:13.204Z,789.00
2022-08-11T22:12:29.504Z,788.00
2022-08-11T22:13:14.910Z,787.00
2022-08-11T22:14:15.781Z,787.00
2022-08-11T22:15:16.492Z,786.00
2022-08-11T22:16:16.532Z,799.00
2022-08-11T22:17:17.345Z,787.00
2022-08-11T22:18:18.165Z,799.00
2022-08-11T22:19:19.024Z,788.00
2022-08-11T22:19:29.515Z,788.00
2022-08-11T22:20:30.388Z,788.00
2022-08-11T22:22:01.276Z,785.00
2022-08-11T22:22:31.983Z,799.00
2022-08-11T22:23:35.317Z,789.00
2022-08-11T22:24:33.666Z,788.00
2022-08-11T22:25:38.740Z,798.00
2022-08-11T22:26:34.082Z,766.00
2022-08-11T22:27:34.665Z,788.00
2022-08-11T22:28:35.498Z,788.00
2022-08-11T22:29:49.162Z,790.00
2022-08-11T22:30:37.132Z,801.00
2022-08-11T22:31:37.598Z,802.00
2022-08-11T22:32:38.859Z,802.00
2022-08-11T22:33:41.411Z,806.00
2022-08-11T22:34:52.610Z,807.00
2022-08-11T22:35:40.708Z,796.00
2022-08-11T22:36:41.266Z,796.00
2022-08-11T22:37:42.659Z,806.00
2022-08-11T22:38:43.281Z,794.00
2022-08-11T22:38:51.914Z,795.00
2022-08-11T22:40:01.609Z,807.00
2022-08-11T22:40:53.275Z,798.00
2022-08-11T22:41:54.209Z,795.00
2022-08-11T22:42:54.920Z,771.00
2022-08-11T22:43:55.608Z,787.00
2022-08-11T22:44:56.652Z,806.00
2022-08-11T22:45:57.534Z,805.00
2022-08-11T22:46:57.617Z,805.00
2022-08-11T22:47:58.062Z,806.00
2022-08-11T22:48:58.856Z,807.00
2022-08-11T22:49:59.623Z,806.00
2022-08-11T22:50:58.674Z,805.00
2022-08-11T22:51:59.358Z,801.00
2022-08-11T22:53:00.999Z,807.00
2022-08-11T22:54:00.468Z,808.00
2022-08-11T22:55:01.751Z,806.00
2022-08-11T22:56:01.967Z,807.00
2022-08-11T22:57:01.999Z,807.00
2022-08-11T22:58:02.577Z,806.00
2022-08-11T22:59:03.207Z,807.00
2022-08-11T23:00:03.536Z,805.00
2022-08-11T23:00:12.694Z,801.00
2022-08-11T23:01:13.386Z,805.00
2022-08-11T23:02:14.279Z,806.00
2022-08-11T23:03:37.064Z,795.00
2022-08-11T23:04:15.377Z,806.00
2022-08-11T23:05:15.911Z,795.00
2022-08-11T23:06:16.970Z,808.00
2022-08-11T23:07:50.059Z,811.00
2022-08-11T23:08:16.751Z,809.00
2022-08-11T23:09:17.387Z,810.00
2022-08-11T23:10:18.758Z,811.00
2022-08-11T23:11:18.627Z,809.00
2022-08-11T23:12:19.291Z,807.00
2022-08-11T23:13:22.368Z,807.00
2022-08-11T23:14:20.442Z,806.00
2022-08-11T23:15:20.527Z,799.00
2022-08-11T23:16:22.185Z,810.00
2022-08-11T23:17:21.860Z,807.00
2022-08-11T23:18:22.622Z,808.00
2022-08-11T23:20:09.647Z,810.00
2022-08-11T23:20:36.266Z,810.00
2022-08-11T23:21:24.392Z,807.00
2022-08-11T23:22:36.926Z,812.00
2022-08-11T23:23:26.270Z,801.00
2022-08-11T23:24:26.837Z,810.00
2022-08-11T23:25:27.740Z,811.00
2022-08-11T23:26:28.633Z,809.00
2022-08-11T23:27:29.433Z,810.00
2022-08-11T23:28:30.195Z,810.00
2022-08-11T23:28:40.873Z,801.00
2022-08-11T23:29:41.695Z,811.00
2022-08-11T23:30:43.301Z,811.00
2022-08-11T23:31:51.286Z,810.00
2022-08-11T23:32:43.062Z,799.00
2022-08-11T23:33:43.144Z,799.00
2022-08-11T23:35:03.732Z,797.00
2022-08-11T23:35:53.811Z,796.00
2022-08-11T23:36:47.451Z,808.00
2022-08-11T23:37:44.873Z,802.00
2022-08-11T23:38:45.160Z,796.00
2022-08-11T23:39:45.307Z,796.00
2022-08-11T23:40:46.073Z,807.00
2022-08-11T23:41:46.087Z,808.00
2022-08-11T23:42:46.353Z,807.00
2022-08-11T23:43:47.027Z,806.00
2022-08-11T23:44:47.894Z,807.00
2022-08-11T23:45:49.044Z,807.00
2022-08-11T23:46:48.575Z,810.00
2022-08-11T23:47:51.042Z,810.00
2022-08-11T23:48:49.703Z,811.00
2022-08-11T23:49:50.511Z,808.00
2022-08-11T23:50:52.003Z,807.00
2022-08-11T23:51:52.621Z,808.00
2022-08-11T23:52:52.152Z,812.00
2022-08-11T23:53:52.264Z,777.00
2022-08-11T23:54:53.033Z,792.00
2022-08-11T23:55:53.940Z,800.00
2022-08-11T23:56:02.642Z,800.00
2022-08-11T23:57:03.322Z,801.00
2022-08-11T23:58:03.963Z,811.00
2022-08-11T23:59:04.317Z,809.00
